sensor_id;sensor_type;location;lat;lon;timestamp;P1;durP1;ratioP1;P2;durP2;ratioP2
51485;SDS011;37565;51.352;6.412;2022-09-09T00:01:59;1.95;;;0.50;;
51485;SDS011;37565;51.352;6.412;2022-09-09T00:04:32;0.63;;;0.40;;
51485;SDS011;37565;51.352;6.412;2022-09-09T00:07:03;0.90;;;0.30;;
51485;SDS011;37565;51.352;6.412;2022-09-09T00:09:39;1.00;;;0.40;;
51485;SDS011;37565;51.352;6.412;2022-09-09T00:12:15;0.75;;;0.30;;
51485;SDS011;37565;51.352;6.412;2022-09-09T00:14:50;1.70;;;0.30;;
51485;SDS011;37565;51.352;6.412;2022-09-09T00:17:24;1.50;;;0.30;;
51485;SDS011;37565;51.352;6.412;2022-09-09T00:20:01;1.13;;;0.30;;
51485;SDS011;37565;51.352;6.412;2022-09-09T00:22:36;0.40;;;0.40;;
51485;SDS011;37565;51.352;6.412;2022-09-09T00:25:10;0.50;;;0.40;;
51485;SDS011;37565;51.352;6.412;2022-09-09T00:27:44;0.30;;;0.22;;
51485;SDS011;37565;51.352;6.412;2022-09-09T00:30:16;0.60;;;0.30;;
51485;SDS011;37565;51.352;6.412;2022-09-09T00:32:48;0.20;;;0.20;;
51485;SDS011;37565;51.352;6.412;2022-09-09T00:35:21;0.80;;;0.30;;
51485;SDS011;37565;51.352;6.412;2022-09-09T00:37:51;0.52;;;0.20;;
51485;SDS011;37565;51.352;6.412;2022-09-09T00:40:25;0.57;;;0.50;;
51485;SDS011;37565;51.352;6.412;2022-09-09T00:43:02;0.25;;;0.20;;
51485;SDS011;37565;51.352;6.412;2022-09-09T00:45:55;0.43;;;0.30;;
51485;SDS011;37565;51.352;6.412;2022-09-09T00:48:39;0.57;;;0.30;;
51485;SDS011;37565;51.352;6.412;2022-09-09T00:51:15;0.38;;;0.20;;
51485;SDS011;37565;51.352;6.412;2022-09-09T00:53:56;0.68;;;0.30;;
51485;SDS011;37565;51.352;6.412;2022-09-09T00:56:35;1.13;;;0.32;;
51485;SDS011;37565;51.352;6.412;2022-09-09T00:59:12;0.55;;;0.20;;
51485;SDS011;37565;51.352;6.412;2022-09-09T01:01:55;0.40;;;0.30;;
51485;SDS011;37565;51.352;6.412;2022-09-09T01:04:24;0.63;;;0.30;;
51485;SDS011;37565;51.352;6.412;2022-09-09T01:07:01;1.15;;;0.38;;
51485;SDS011;37565;51.352;6.412;2022-09-09T01:09:37;1.45;;;0.30;;
51485;SDS011;37565;51.352;6.412;2022-09-09T01:12:13;1.67;;;0.47;;
51485;SDS011;37565;51.352;6.412;2022-09-09T01:14:45;0.52;;;0.30;;
51485;SDS011;37565;51.352;6.412;2022-09-09T01:17:19;0.65;;;0.45;;
51485;SDS011;37565;51.352;6.412;2022-09-09T01:19:53;0.40;;;0.20;;
51485;SDS011;37565;51.352;6.412;2022-09-09T01:22:30;2.72;;;0.22;;
51485;SDS011;37565;51.352;6.412;2022-09-09T01:25:19;0.52;;;0.38;;
51485;SDS011;37565;51.352;6.412;2022-09-09T01:27:57;0.40;;;0.30;;
51485;SDS011;37565;51.352;6.412;2022-09-09T01:30:28;0.45;;;0.20;;
51485;SDS011;37565;51.352;6.412;2022-09-09T01:32:56;0.85;;;0.30;;
51485;SDS011;37565;51.352;6.412;2022-09-09T01:35:31;2.05;;;0.20;;
51485;SDS011;37565;51.352;6.412;2022-09-09T01:38:05;0.77;;;0.40;;
51485;SDS011;37565;51.352;6.412;2022-09-09T01:40:33;0.30;;;0.28;;
51485;SDS011;37565;51.352;6.412;2022-09-09T01:43:03;0.30;;;0.20;;
51485;SDS011;37565;51.352;6.412;2022-09-09T01:45:32;0.47;;;0.20;;
51485;SDS011;37565;51.352;6.412;2022-09-09T01:48:01;0.88;;;0.30;;
51485;SDS011;37565;51.352;6.412;2022-09-09T01:50:29;0.15;;;0.15;;
51485;SDS011;37565;51.352;6.412;2022-09-09T01:52:58;0.65;;;0.30;;
51485;SDS011;37565;51.352;6.412;2022-09-09T01:55:29;0.50;;;0.30;;
51485;SDS011;37565;51.352;6.412;2022-09-09T01:58:02;0.25;;;0.25;;
51485;SDS011;37565;51.352;6.412;2022-09-09T02:00:45;1.00;;;0.60;;
51485;SDS011;37565;51.352;6.412;2022-09-09T02:03:21;1.55;;;0.30;;
51485;SDS011;37565;51.352;6.412;2022-09-09T02:05:56;0.50;;;0.30;;
51485;SDS011;37565;51.352;6.412;2022-09-09T02:08:33;0.30;;;0.30;;
51485;SDS011;37565;51.352;6.412;2022-09-09T02:11:07;0.30;;;0.30;;
51485;SDS011;37565;51.352;6.412;2022-09-09T02:13:40;1.92;;;0.30;;
51485;SDS011;37565;51.352;6.412;2022-09-09T02:16:12;0.20;;;0.20;;
51485;SDS011;37565;51.352;6.412;2022-09-09T02:18:46;0.22;;;0.20;;
51485;SDS011;37565;51.352;6.412;2022-09-09T02:21:17;0.35;;;0.22;;
51485;SDS011;37565;51.352;6.412;2022-09-09T02:23:46;0.55;;;0.30;;
51485;SDS011;37565;51.352;6.412;2022-09-09T02:26:18;0.52;;;0.38;;
51485;SDS011;37565;51.352;6.412;2022-09-09T02:28:50;1.27;;;0.30;;
51485;SDS011;37565;51.352;6.412;2022-09-09T02:31:22;0.40;;;0.22;;
51485;SDS011;37565;51.352;6.412;2022-09-09T02:33:52;0.43;;;0.20;;
51485;SDS011;37565;51.352;6.412;2022-09-09T02:36:23;0.60;;;0.25;;
51485;SDS011;37565;51.352;6.412;2022-09-09T02:38:52;0.45;;;0.20;;
51485;SDS011;37565;51.352;6.412;2022-09-09T02:41:22;0.30;;;0.20;;
51485;SDS011;37565;51.352;6.412;2022-09-09T02:43:54;0.30;;;0.15;;
51485;SDS011;37565;51.352;6.412;2022-09-09T02:46:36;0.82;;;0.28;;
51485;SDS011;37565;51.352;6.412;2022-09-09T02:49:14;1.02;;;0.30;;
51485;SDS011;37565;51.352;6.412;2022-09-09T02:51:50;1.58;;;0.40;;
51485;SDS011;37565;51.352;6.412;2022-09-09T02:54:23;0.85;;;0.30;;
51485;SDS011;37565;51.352;6.412;2022-09-09T02:59:30;0.20;;;0.20;;
51485;SDS011;37565;51.352;6.412;2022-09-09T03:01:58;0.52;;;0.30;;
51485;SDS011;37565;51.352;6.412;2022-09-09T03:04:26;0.50;;;0.25;;
51485;SDS011;37565;51.352;6.412;2022-09-09T03:06:54;0.52;;;0.52;;
51485;SDS011;37565;51.352;6.412;2022-09-09T03:09:22;1.25;;;0.35;;
51485;SDS011;37565;51.352;6.412;2022-09-09T03:11:50;0.82;;;0.20;;
51485;SDS011;37565;51.352;6.412;2022-09-09T03:14:18;0.57;;;0.20;;
51485;SDS011;37565;51.352;6.412;2022-09-09T03:16:52;1.30;;;0.40;;
51485;SDS011;37565;51.352;6.412;2022-09-09T03:19:21;0.70;;;0.40;;
51485;SDS011;37565;51.352;6.412;2022-09-09T03:21:48;0.20;;;0.20;;
51485;SDS011;37565;51.352;6.412;2022-09-09T03:24:17;0.65;;;0.45;;
51485;SDS011;37565;51.352;6.412;2022-09-09T03:26:45;0.68;;;0.20;;
51485;SDS011;37565;51.352;6.412;2022-09-09T03:29:13;1.50;;;0.30;;
51485;SDS011;37565;51.352;6.412;2022-09-09T03:31:41;0.70;;;0.30;;
51485;SDS011;37565;51.352;6.412;2022-09-09T03:34:11;0.77;;;0.30;;
51485;SDS011;37565;51.352;6.412;2022-09-09T03:36:39;0.77;;;0.30;;
51485;SDS011;37565;51.352;6.412;2022-09-09T03:39:08;0.98;;;0.40;;
51485;SDS011;37565;51.352;6.412;2022-09-09T03:41:36;0.32;;;0.22;;
51485;SDS011;37565;51.352;6.412;2022-09-09T03:44:04;0.70;;;0.30;;
51485;SDS011;37565;51.352;6.412;2022-09-09T03:46:32;0.68;;;0.30;;
51485;SDS011;37565;51.352;6.412;2022-09-09T03:49:00;0.82;;;0.40;;
51485;SDS011;37565;51.352;6.412;2022-09-09T03:51:29;0.38;;;0.38;;
51485;SDS011;37565;51.352;6.412;2022-09-09T03:53:57;0.30;;;0.30;;
51485;SDS011;37565;51.352;6.412;2022-09-09T03:56:26;1.17;;;0.32;;
51485;SDS011;37565;51.352;6.412;2022-09-09T03:58:54;0.38;;;0.38;;
51485;SDS011;37565;51.352;6.412;2022-09-09T04:01:21;0.38;;;0.20;;
51485;SDS011;37565;51.352;6.412;2022-09-09T04:03:49;1.45;;;0.35;;
51485;SDS011;37565;51.352;6.412;2022-09-09T04:06:18;0.75;;;0.40;;
51485;SDS011;37565;51.352;6.412;2022-09-09T04:08:48;0.40;;;0.20;;
51485;SDS011;37565;51.352;6.412;2022-09-09T04:11:18;0.65;;;0.28;;
51485;SDS011;37565;51.352;6.412;2022-09-09T04:13:46;0.47;;;0.30;;
51485;SDS011;37565;51.352;6.412;2022-09-09T04:16:15;0.28;;;0.28;;
51485;SDS011;37565;51.352;6.412;2022-09-09T04:18:43;0.55;;;0.20;;
51485;SDS011;37565;51.352;6.412;2022-09-09T04:21:11;0.60;;;0.25;;
51485;SDS011;37565;51.352;6.412;2022-09-09T04:23:39;0.35;;;0.30;;
51485;SDS011;37565;51.352;6.412;2022-09-09T04:26:08;1.02;;;0.40;;
51485;SDS011;37565;51.352;6.412;2022-09-09T04:28:36;1.40;;;0.30;;
51485;SDS011;37565;51.352;6.412;2022-09-09T04:31:05;0.28;;;0.28;;
51485;SDS011;37565;51.352;6.412;2022-09-09T04:33:35;0.22;;;0.22;;
51485;SDS011;37565;51.352;6.412;2022-09-09T04:36:05;0.68;;;0.30;;
51485;SDS011;37565;51.352;6.412;2022-09-09T04:38:33;0.20;;;0.20;;
51485;SDS011;37565;51.352;6.412;2022-09-09T04:41:02;0.20;;;0.20;;
51485;SDS011;37565;51.352;6.412;2022-09-09T04:43:31;0.57;;;0.38;;
51485;SDS011;37565;51.352;6.412;2022-09-09T04:45:59;0.75;;;0.50;;
51485;SDS011;37565;51.352;6.412;2022-09-09T04:48:27;0.40;;;0.30;;
51485;SDS011;37565;51.352;6.412;2022-09-09T04:50:56;0.30;;;0.20;;
51485;SDS011;37565;51.352;6.412;2022-09-09T04:53:24;0.55;;;0.20;;
51485;SDS011;37565;51.352;6.412;2022-09-09T04:55:53;0.65;;;0.30;;
51485;SDS011;37565;51.352;6.412;2022-09-09T04:58:29;0.38;;;0.28;;
51485;SDS011;37565;51.352;6.412;2022-09-09T05:01:03;2.47;;;0.32;;
51485;SDS011;37565;51.352;6.412;2022-09-09T05:03:32;0.55;;;0.20;;
51485;SDS011;37565;51.352;6.412;2022-09-09T05:06:07;0.22;;;0.20;;
51485;SDS011;37565;51.352;6.412;2022-09-09T05:08:37;1.15;;;0.30;;
51485;SDS011;37565;51.352;6.412;2022-09-09T05:11:12;0.73;;;0.30;;
51485;SDS011;37565;51.352;6.412;2022-09-09T05:13:42;1.15;;;0.50;;
51485;SDS011;37565;51.352;6.412;2022-09-09T05:16:11;1.42;;;0.50;;
51485;SDS011;37565;51.352;6.412;2022-09-09T05:18:40;0.98;;;0.52;;
51485;SDS011;37565;51.352;6.412;2022-09-09T05:21:09;1.55;;;0.70;;
51485;SDS011;37565;51.352;6.412;2022-09-09T05:23:38;2.45;;;0.77;;
51485;SDS011;37565;51.352;6.412;2022-09-09T05:26:07;4.28;;;0.60;;
51485;SDS011;37565;51.352;6.412;2022-09-09T05:28:43;0.73;;;0.52;;
51485;SDS011;37565;51.352;6.412;2022-09-09T05:31:13;3.22;;;1.25;;
51485;SDS011;37565;51.352;6.412;2022-09-09T05:33:43;4.07;;;1.08;;
51485;SDS011;37565;51.352;6.412;2022-09-09T05:36:12;2.83;;;0.77;;
51485;SDS011;37565;51.352;6.412;2022-09-09T05:38:41;3.83;;;1.27;;
51485;SDS011;37565;51.352;6.412;2022-09-09T05:41:10;4.57;;;1.00;;
51485;SDS011;37565;51.352;6.412;2022-09-09T05:43:41;3.75;;;1.10;;
51485;SDS011;37565;51.352;6.412;2022-09-09T05:46:11;5.15;;;0.82;;
51485;SDS011;37565;51.352;6.412;2022-09-09T05:48:42;6.43;;;1.13;;
51485;SDS011;37565;51.352;6.412;2022-09-09T05:51:13;4.97;;;1.10;;
51485;SDS011;37565;51.352;6.412;2022-09-09T05:53:43;3.75;;;0.77;;
51485;SDS011;37565;51.352;6.412;2022-09-09T05:56:13;4.57;;;0.95;;
51485;SDS011;37565;51.352;6.412;2022-09-09T05:58:43;3.72;;;1.00;;
51485;SDS011;37565;51.352;6.412;2022-09-09T06:01:15;2.65;;;1.10;;
51485;SDS011;37565;51.352;6.412;2022-09-09T06:03:44;4.03;;;1.10;;
51485;SDS011;37565;51.352;6.412;2022-09-09T06:06:14;6.65;;;1.00;;
51485;SDS011;37565;51.352;6.412;2022-09-09T06:08:44;4.82;;;1.00;;
51485;SDS011;37565;51.352;6.412;2022-09-09T06:11:13;6.20;;;1.10;;
51485;SDS011;37565;51.352;6.412;2022-09-09T06:13:43;5.45;;;1.23;;
51485;SDS011;37565;51.352;6.412;2022-09-09T06:16:12;8.20;;;1.17;;
51485;SDS011;37565;51.352;6.412;2022-09-09T06:18:42;2.35;;;1.20;;
51485;SDS011;37565;51.352;6.412;2022-09-09T06:21:11;5.82;;;1.55;;
51485;SDS011;37565;51.352;6.412;2022-09-09T06:23:44;5.20;;;1.15;;
51485;SDS011;37565;51.352;6.412;2022-09-09T06:26:14;1.90;;;0.95;;
51485;SDS011;37565;51.352;6.412;2022-09-09T06:28:45;4.68;;;1.10;;
51485;SDS011;37565;51.352;6.412;2022-09-09T06:31:16;5.00;;;1.23;;
51485;SDS011;37565;51.352;6.412;2022-09-09T06:33:53;3.65;;;1.23;;
51485;SDS011;37565;51.352;6.412;2022-09-09T06:36:22;7.85;;;1.58;;
51485;SDS011;37565;51.352;6.412;2022-09-09T06:38:51;2.63;;;0.93;;
51485;SDS011;37565;51.352;6.412;2022-09-09T06:41:21;6.85;;;1.40;;
51485;SDS011;37565;51.352;6.412;2022-09-09T06:43:49;3.60;;;0.90;;
51485;SDS011;37565;51.352;6.412;2022-09-09T06:46:19;4.13;;;1.17;;
51485;SDS011;37565;51.352;6.412;2022-09-09T06:48:48;7.22;;;1.23;;
51485;SDS011;37565;51.352;6.412;2022-09-09T06:51:17;3.85;;;1.00;;
51485;SDS011;37565;51.352;6.412;2022-09-09T06:53:47;3.90;;;1.45;;
51485;SDS011;37565;51.352;6.412;2022-09-09T06:56:20;5.18;;;1.15;;
51485;SDS011;37565;51.352;6.412;2022-09-09T06:58:50;4.03;;;1.15;;
51485;SDS011;37565;51.352;6.412;2022-09-09T07:01:22;3.28;;;1.05;;
51485;SDS011;37565;51.352;6.412;2022-09-09T07:03:51;5.43;;;1.17;;
51485;SDS011;37565;51.352;6.412;2022-09-09T07:06:21;8.80;;;1.15;;
51485;SDS011;37565;51.352;6.412;2022-09-09T07:08:51;2.42;;;0.90;;
51485;SDS011;37565;51.352;6.412;2022-09-09T07:11:22;4.32;;;1.02;;
51485;SDS011;37565;51.352;6.412;2022-09-09T07:13:53;1.70;;;0.75;;
51485;SDS011;37565;51.352;6.412;2022-09-09T07:16:23;5.28;;;0.95;;
51485;SDS011;37565;51.352;6.412;2022-09-09T07:18:51;2.83;;;0.82;;
51485;SDS011;37565;51.352;6.412;2022-09-09T07:21:24;3.85;;;0.90;;
51485;SDS011;37565;51.352;6.412;2022-09-09T07:23:53;5.07;;;1.00;;
51485;SDS011;37565;51.352;6.412;2022-09-09T07:26:23;2.72;;;0.88;;
51485;SDS011;37565;51.352;6.412;2022-09-09T07:28:52;6.50;;;1.17;;
51485;SDS011;37565;51.352;6.412;2022-09-09T07:31:23;6.22;;;1.27;;
51485;SDS011;37565;51.352;6.412;2022-09-09T07:33:53;4.22;;;1.42;;
51485;SDS011;37565;51.352;6.412;2022-09-09T07:36:22;5.15;;;1.40;;
51485;SDS011;37565;51.352;6.412;2022-09-09T07:38:59;6.75;;;1.48;;
51485;SDS011;37565;51.352;6.412;2022-09-09T07:41:30;6.22;;;0.95;;
51485;SDS011;37565;51.352;6.412;2022-09-09T07:44:03;3.38;;;0.63;;
51485;SDS011;37565;51.352;6.412;2022-09-09T07:46:34;5.47;;;0.90;;
51485;SDS011;37565;51.352;6.412;2022-09-09T07:49:03;5.22;;;1.30;;
51485;SDS011;37565;51.352;6.412;2022-09-09T07:51:31;7.75;;;1.17;;
51485;SDS011;37565;51.352;6.412;2022-09-09T07:54:02;5.90;;;1.13;;
51485;SDS011;37565;51.352;6.412;2022-09-09T07:56:31;6.05;;;0.95;;
51485;SDS011;37565;51.352;6.412;2022-09-09T07:58:59;7.40;;;1.33;;
51485;SDS011;37565;51.352;6.412;2022-09-09T08:01:29;6.95;;;1.33;;
51485;SDS011;37565;51.352;6.412;2022-09-09T08:04:00;4.32;;;1.00;;
51485;SDS011;37565;51.352;6.412;2022-09-09T08:06:31;5.43;;;1.40;;
51485;SDS011;37565;51.352;6.412;2022-09-09T08:09:00;6.43;;;0.85;;
51485;SDS011;37565;51.352;6.412;2022-09-09T08:11:28;3.40;;;1.05;;
51485;SDS011;37565;51.352;6.412;2022-09-09T08:14:04;5.68;;;1.05;;
51485;SDS011;37565;51.352;6.412;2022-09-09T08:16:34;4.75;;;1.02;;
51485;SDS011;37565;51.352;6.412;2022-09-09T08:19:05;1.83;;;0.70;;
51485;SDS011;37565;51.352;6.412;2022-09-09T08:21:35;4.35;;;1.25;;
51485;SDS011;37565;51.352;6.412;2022-09-09T08:24:05;5.15;;;1.20;;
51485;SDS011;37565;51.352;6.412;2022-09-09T08:26:34;5.35;;;1.30;;
51485;SDS011;37565;51.352;6.412;2022-09-09T08:29:05;4.07;;;0.93;;
51485;SDS011;37565;51.352;6.412;2022-09-09T08:31:35;3.70;;;0.82;;
51485;SDS011;37565;51.352;6.412;2022-09-09T08:34:06;3.40;;;1.02;;
51485;SDS011;37565;51.352;6.412;2022-09-09T08:36:36;1.67;;;0.90;;
51485;SDS011;37565;51.352;6.412;2022-09-09T08:39:06;3.90;;;1.05;;
51485;SDS011;37565;51.352;6.412;2022-09-09T08:41:38;4.10;;;0.77;;
51485;SDS011;37565;51.352;6.412;2022-09-09T08:44:19;3.17;;;0.85;;
51485;SDS011;37565;51.352;6.412;2022-09-09T08:46:55;3.35;;;0.75;;
51485;SDS011;37565;51.352;6.412;2022-09-09T08:49:44;3.28;;;0.80;;
51485;SDS011;37565;51.352;6.412;2022-09-09T08:52:25;4.13;;;0.75;;
51485;SDS011;37565;51.352;6.412;2022-09-09T08:54:58;4.60;;;1.25;;
51485;SDS011;37565;51.352;6.412;2022-09-09T08:57:31;3.67;;;0.80;;
51485;SDS011;37565;51.352;6.412;2022-09-09T09:00:01;2.20;;;0.60;;
51485;SDS011;37565;51.352;6.412;2022-09-09T09:02:31;4.25;;;0.95;;
51485;SDS011;37565;51.352;6.412;2022-09-09T09:05:09;1.85;;;0.70;;
51485;SDS011;37565;51.352;6.412;2022-09-09T09:07:49;1.77;;;0.70;;
51485;SDS011;37565;51.352;6.412;2022-09-09T09:10:31;3.13;;;0.75;;
51485;SDS011;37565;51.352;6.412;2022-09-09T09:13:12;3.92;;;0.82;;
51485;SDS011;37565;51.352;6.412;2022-09-09T09:15:42;3.72;;;0.65;;
51485;SDS011;37565;51.352;6.412;2022-09-09T09:18:15;1.58;;;0.90;;
51485;SDS011;37565;51.352;6.412;2022-09-09T09:20:50;3.10;;;0.98;;
51485;SDS011;37565;51.352;6.412;2022-09-09T09:23:25;5.18;;;0.65;;
51485;SDS011;37565;51.352;6.412;2022-09-09T09:25:58;6.63;;;1.02;;
51485;SDS011;37565;51.352;6.412;2022-09-09T09:28:29;8.00;;;1.20;;
51485;SDS011;37565;51.352;6.412;2022-09-09T09:30:59;15.75;;;1.10;;
51485;SDS011;37565;51.352;6.412;2022-09-09T09:33:33;4.25;;;0.77;;
51485;SDS011;37565;51.352;6.412;2022-09-09T09:36:04;3.58;;;0.70;;
51485;SDS011;37565;51.352;6.412;2022-09-09T09:38:34;2.40;;;1.13;;
51485;SDS011;37565;51.352;6.412;2022-09-09T09:41:33;1.60;;;0.60;;
51485;SDS011;37565;51.352;6.412;2022-09-09T09:44:03;3.63;;;0.73;;
51485;SDS011;37565;51.352;6.412;2022-09-09T09:46:31;5.72;;;0.70;;
51485;SDS011;37565;51.352;6.412;2022-09-09T09:49:00;4.45;;;0.70;;
51485;SDS011;37565;51.352;6.412;2022-09-09T09:51:32;4.15;;;0.88;;
51485;SDS011;37565;51.352;6.412;2022-09-09T09:54:04;3.00;;;0.60;;
51485;SDS011;37565;51.352;6.412;2022-09-09T09:56:40;1.83;;;0.60;;
51485;SDS011;37565;51.352;6.412;2022-09-09T09:59:18;1.88;;;0.73;;
51485;SDS011;37565;51.352;6.412;2022-09-09T10:02:14;3.63;;;0.63;;
51485;SDS011;37565;51.352;6.412;2022-09-09T10:04:44;1.73;;;0.60;;
51485;SDS011;37565;51.352;6.412;2022-09-09T10:07:17;4.85;;;0.82;;
51485;SDS011;37565;51.352;6.412;2022-09-09T10:09:46;4.25;;;1.05;;
51485;SDS011;37565;51.352;6.412;2022-09-09T10:12:22;4.15;;;0.60;;
51485;SDS011;37565;51.352;6.412;2022-09-09T10:15:00;2.05;;;0.70;;
51485;SDS011;37565;51.352;6.412;2022-09-09T10:17:36;4.30;;;0.70;;
51485;SDS011;37565;51.352;6.412;2022-09-09T10:20:16;2.90;;;1.15;;
51485;SDS011;37565;51.352;6.412;2022-09-09T10:22:55;5.57;;;1.02;;
51485;SDS011;37565;51.352;6.412;2022-09-09T10:25:39;1.98;;;0.95;;
51485;SDS011;37565;51.352;6.412;2022-09-09T10:28:26;2.65;;;0.80;;
51485;SDS011;37565;51.352;6.412;2022-09-09T10:31:07;3.85;;;0.63;;
51485;SDS011;37565;51.352;6.412;2022-09-09T10:33:48;2.95;;;1.02;;
51485;SDS011;37565;51.352;6.412;2022-09-09T10:36:19;2.60;;;0.68;;
51485;SDS011;37565;51.352;6.412;2022-09-09T10:38:52;1.60;;;0.60;;
51485;SDS011;37565;51.352;6.412;2022-09-09T10:41:30;5.88;;;0.85;;
51485;SDS011;37565;51.352;6.412;2022-09-09T10:44:12;2.50;;;0.77;;
51485;SDS011;37565;51.352;6.412;2022-09-09T10:47:00;7.07;;;0.82;;
51485;SDS011;37565;51.352;6.412;2022-09-09T10:49:47;2.55;;;0.73;;
51485;SDS011;37565;51.352;6.412;2022-09-09T10:52:28;3.38;;;0.80;;
51485;SDS011;37565;51.352;6.412;2022-09-09T10:55:06;3.38;;;1.02;;
51485;SDS011;37565;51.352;6.412;2022-09-09T10:57:41;3.03;;;0.80;;
51485;SDS011;37565;51.352;6.412;2022-09-09T11:00:15;4.18;;;0.93;;
51485;SDS011;37565;51.352;6.412;2022-09-09T11:02:47;8.23;;;0.90;;
51485;SDS011;37565;51.352;6.412;2022-09-09T11:05:20;3.85;;;0.63;;
51485;SDS011;37565;51.352;6.412;2022-09-09T11:07:52;2.58;;;0.80;;
51485;SDS011;37565;51.352;6.412;2022-09-09T11:10:27;6.38;;;0.80;;
51485;SDS011;37565;51.352;6.412;2022-09-09T11:13:02;2.17;;;0.60;;
51485;SDS011;37565;51.352;6.412;2022-09-09T11:15:35;4.85;;;0.93;;
51485;SDS011;37565;51.352;6.412;2022-09-09T11:18:09;3.15;;;0.60;;
51485;SDS011;37565;51.352;6.412;2022-09-09T11:20:40;4.10;;;0.60;;
51485;SDS011;37565;51.352;6.412;2022-09-09T11:23:11;4.82;;;0.60;;
51485;SDS011;37565;51.352;6.412;2022-09-09T11:25:47;2.47;;;1.08;;
51485;SDS011;37565;51.352;6.412;2022-09-09T11:28:26;3.30;;;0.90;;
51485;SDS011;37565;51.352;6.412;2022-09-09T11:31:06;3.83;;;0.82;;
51485;SDS011;37565;51.352;6.412;2022-09-09T11:33:51;4.03;;;0.70;;
51485;SDS011;37565;51.352;6.412;2022-09-09T11:36:38;3.22;;;1.17;;
51485;SDS011;37565;51.352;6.412;2022-09-09T11:39:32;2.35;;;0.77;;
51485;SDS011;37565;51.352;6.412;2022-09-09T11:42:20;3.00;;;0.75;;
51485;SDS011;37565;51.352;6.412;2022-09-09T11:44:49;2.92;;;0.90;;
51485;SDS011;37565;51.352;6.412;2022-09-09T11:47:20;3.42;;;0.55;;
51485;SDS011;37565;51.352;6.412;2022-09-09T11:49:55;2.60;;;0.70;;
51485;SDS011;37565;51.352;6.412;2022-09-09T11:52:36;1.67;;;0.50;;
51485;SDS011;37565;51.352;6.412;2022-09-09T11:55:08;0.77;;;0.43;;
51485;SDS011;37565;51.352;6.412;2022-09-09T11:57:39;2.30;;;0.60;;
51485;SDS011;37565;51.352;6.412;2022-09-09T12:03:01;2.97;;;0.80;;
51485;SDS011;37565;51.352;6.412;2022-09-09T12:05:36;1.75;;;0.70;;
51485;SDS011;37565;51.352;6.412;2022-09-09T12:08:06;1.65;;;0.60;;
51485;SDS011;37565;51.352;6.412;2022-09-09T12:10:38;3.05;;;0.43;;
51485;SDS011;37565;51.352;6.412;2022-09-09T12:13:16;1.40;;;0.60;;
51485;SDS011;37565;51.352;6.412;2022-09-09T12:15:48;1.67;;;0.50;;
51485;SDS011;37565;51.352;6.412;2022-09-09T12:18:21;10.88;;;0.80;;
51485;SDS011;37565;51.352;6.412;2022-09-09T12:20:53;2.58;;;0.60;;
51485;SDS011;37565;51.352;6.412;2022-09-09T12:23:37;1.52;;;0.43;;
51485;SDS011;37565;51.352;6.412;2022-09-09T12:29:02;1.55;;;0.50;;
51485;SDS011;37565;51.352;6.412;2022-09-09T12:31:41;1.80;;;0.52;;
51485;SDS011;37565;51.352;6.412;2022-09-09T12:34:15;1.67;;;0.50;;
51485;SDS011;37565;51.352;6.412;2022-09-09T12:36:47;1.83;;;0.60;;
51485;SDS011;37565;51.352;6.412;2022-09-09T12:39:22;1.45;;;0.60;;
51485;SDS011;37565;51.352;6.412;2022-09-09T12:44:26;2.92;;;0.55;;
51485;SDS011;37565;51.352;6.412;2022-09-09T12:46:55;3.13;;;0.75;;
51485;SDS011;37565;51.352;6.412;2022-09-09T12:49:28;1.58;;;0.60;;
51485;SDS011;37565;51.352;6.412;2022-09-09T12:52:01;1.93;;;0.70;;
51485;SDS011;37565;51.352;6.412;2022-09-09T12:54:32;4.22;;;0.70;;
51485;SDS011;37565;51.352;6.412;2022-09-09T12:57:02;1.85;;;0.60;;
51485;SDS011;37565;51.352;6.412;2022-09-09T12:59:36;2.65;;;0.57;;
51485;SDS011;37565;51.352;6.412;2022-09-09T13:02:11;2.50;;;0.60;;
51485;SDS011;37565;51.352;6.412;2022-09-09T13:04:46;2.35;;;0.70;;
51485;SDS011;37565;51.352;6.412;2022-09-09T13:07:16;1.70;;;0.68;;
51485;SDS011;37565;51.352;6.412;2022-09-09T13:09:45;3.42;;;0.63;;
51485;SDS011;37565;51.352;6.412;2022-09-09T13:12:16;6.35;;;0.70;;
51485;SDS011;37565;51.352;6.412;2022-09-09T13:14:48;1.85;;;0.60;;
51485;SDS011;37565;51.352;6.412;2022-09-09T13:17:19;1.00;;;0.40;;
51485;SDS011;37565;51.352;6.412;2022-09-09T13:19:49;4.97;;;0.57;;
51485;SDS011;37565;51.352;6.412;2022-09-09T13:22:20;2.92;;;0.82;;
51485;SDS011;37565;51.352;6.412;2022-09-09T13:24:58;4.28;;;1.05;;
51485;SDS011;37565;51.352;6.412;2022-09-09T13:27:29;2.28;;;0.60;;
51485;SDS011;37565;51.352;6.412;2022-09-09T13:30:00;3.45;;;0.60;;
51485;SDS011;37565;51.352;6.412;2022-09-09T13:32:28;2.92;;;0.98;;
51485;SDS011;37565;51.352;6.412;2022-09-09T13:34:58;2.42;;;0.57;;
51485;SDS011;37565;51.352;6.412;2022-09-09T13:37:28;1.25;;;0.70;;
51485;SDS011;37565;51.352;6.412;2022-09-09T13:40:00;4.03;;;0.70;;
51485;SDS011;37565;51.352;6.412;2022-09-09T13:42:31;1.55;;;0.68;;
51485;SDS011;37565;51.352;6.412;2022-09-09T13:45:14;1.73;;;0.70;;
51485;SDS011;37565;51.352;6.412;2022-09-09T13:47:46;3.78;;;0.63;;
51485;SDS011;37565;51.352;6.412;2022-09-09T13:50:19;1.25;;;0.70;;
51485;SDS011;37565;51.352;6.412;2022-09-09T13:52:48;1.65;;;0.65;;
51485;SDS011;37565;51.352;6.412;2022-09-09T13:55:17;2.15;;;0.60;;
51485;SDS011;37565;51.352;6.412;2022-09-09T13:57:51;1.90;;;0.50;;
51485;SDS011;37565;51.352;6.412;2022-09-09T14:00:21;1.55;;;0.90;;
51485;SDS011;37565;51.352;6.412;2022-09-09T14:02:50;2.90;;;0.75;;
51485;SDS011;37565;51.352;6.412;2022-09-09T14:05:18;1.27;;;0.60;;
51485;SDS011;37565;51.352;6.412;2022-09-09T14:07:48;3.80;;;0.88;;
51485;SDS011;37565;51.352;6.412;2022-09-09T14:10:18;3.08;;;0.50;;
51485;SDS011;37565;51.352;6.412;2022-09-09T14:12:47;3.88;;;0.90;;
51485;SDS011;37565;51.352;6.412;2022-09-09T14:15:15;2.92;;;0.50;;
51485;SDS011;37565;51.352;6.412;2022-09-09T14:17:44;4.68;;;0.57;;
51485;SDS011;37565;51.352;6.412;2022-09-09T14:20:12;2.08;;;0.40;;
51485;SDS011;37565;51.352;6.412;2022-09-09T14:22:41;1.90;;;0.57;;
51485;SDS011;37565;51.352;6.412;2022-09-09T14:25:10;2.55;;;0.57;;
51485;SDS011;37565;51.352;6.412;2022-09-09T14:27:39;4.53;;;0.82;;
51485;SDS011;37565;51.352;6.412;2022-09-09T14:30:08;0.90;;;0.65;;
51485;SDS011;37565;51.352;6.412;2022-09-09T14:32:37;3.63;;;0.75;;
51485;SDS011;37565;51.352;6.412;2022-09-09T14:35:07;0.73;;;0.38;;
51485;SDS011;37565;51.352;6.412;2022-09-09T14:37:35;0.55;;;0.40;;
51485;SDS011;37565;51.352;6.412;2022-09-09T14:40:05;2.90;;;0.70;;
51485;SDS011;37565;51.352;6.412;2022-09-09T14:42:34;1.30;;;0.40;;
51485;SDS011;37565;51.352;6.412;2022-09-09T14:45:02;0.85;;;0.40;;
51485;SDS011;37565;51.352;6.412;2022-09-09T14:47:31;1.20;;;0.47;;
51485;SDS011;37565;51.352;6.412;2022-09-09T14:49:59;0.70;;;0.30;;
51485;SDS011;37565;51.352;6.412;2022-09-09T14:52:28;2.80;;;0.50;;
51485;SDS011;37565;51.352;6.412;2022-09-09T14:54:57;1.23;;;0.47;;
51485;SDS011;37565;51.352;6.412;2022-09-09T14:57:25;0.95;;;0.43;;
51485;SDS011;37565;51.352;6.412;2022-09-09T14:59:53;0.82;;;0.30;;
51485;SDS011;37565;51.352;6.412;2022-09-09T15:02:21;2.20;;;0.47;;
51485;SDS011;37565;51.352;6.412;2022-09-09T15:04:49;2.08;;;0.50;;
51485;SDS011;37565;51.352;6.412;2022-09-09T15:07:17;3.47;;;0.38;;
51485;SDS011;37565;51.352;6.412;2022-09-09T15:09:46;1.00;;;0.40;;
51485;SDS011;37565;51.352;6.412;2022-09-09T15:12:15;8.27;;;0.50;;
51485;SDS011;37565;51.352;6.412;2022-09-09T15:14:45;8.05;;;0.77;;
51485;SDS011;37565;51.352;6.412;2022-09-09T15:17:13;5.80;;;0.57;;
51485;SDS011;37565;51.352;6.412;2022-09-09T15:19:41;2.42;;;0.32;;
51485;SDS011;37565;51.352;6.412;2022-09-09T15:22:09;2.92;;;0.50;;
51485;SDS011;37565;51.352;6.412;2022-09-09T15:24:37;3.00;;;0.43;;
51485;SDS011;37565;51.352;6.412;2022-09-09T15:27:06;1.55;;;0.40;;
51485;SDS011;37565;51.352;6.412;2022-09-09T15:29:34;4.25;;;0.47;;